Time;durP1;ratioP1;P1;durP2;ratioP2;P2;SDS_P1;SDS_P2;PMS_P1;PMS_P2;Temp;Humidity;BMP_temperature;BMP_pressure;BME280_temperature;BME280_humidity;BME280_pressure;Samples;Min_cycle;Max_cycle;Signal;HPM_P1;HPM_P2
2023/04/11 07:02:08;;;;;;;1.63;0.90;;;12.10;99.90;13.50;101100.00;;;;6372426;22;20167;-75
2023/04/11 07:05:17;;;;;;;0.63;0.13;;;11.70;99.90;13.70;101103.00;;;;6343863;22;20156;-76
2023/04/11 07:08:23;;;;;;;1.23;0.77;;;12.00;99.90;14.30;101117.00;;;;6322230;22;20486;-75
2023/04/11 07:10:58;;;;;;;5.27;1.17;;;12.20;99.90;13.70;101125.00;;;;6372198;22;20605;-66
2023/04/11 07:13:24;;;;;;;3.50;1.10;;;12.40;99.90;13.10;101107.00;;;;6372205;22;20249;-73
2023/04/11 07:15:57;;;;;;;0.40;0.37;;;11.90;99.90;13.00;101112.00;;;;6344402;22;20136;-73
2023/04/11 07:18:31;;;;;;;3.00;0.57;;;11.70;99.90;14.20;101115.00;;;;6344456;22;20133;-74
2023/04/11 07:21:00;;;;;;;3.00;0.93;;;12.00;99.90;13.90;101121.00;;;;6344273;22;20143;-73
2023/04/11 07:23:26;;;;;;;3.65;1.58;;;12.30;99.90;13.60;101129.00;;;;6369464;22;20845;-73
2023/04/11 07:26:02;;;;;;;5.40;1.03;;;12.10;99.90;14.20;101125.00;;;;6344660;22;20175;-73
2023/04/11 07:28:34;;;;;;;3.77;1.40;;;12.50;99.90;14.50;101136.00;;;;6344280;22;20451;-74
2023/04/11 07:31:00;;;;;;;0.77;0.77;;;12.70;99.90;13.10;101121.00;;;;6318289;22;20162;-73
2023/04/11 07:33:55;;;;;;;4.10;1.20;;;12.10;99.90;13.20;101117.00;;;;6343322;22;20175;-73
2023/04/11 07:36:59;;;;;;;0.27;0.27;;;11.80;99.90;13.60;101104.00;;;;6327303;22;20654;-73
2023/04/11 07:39:45;;;;;;;0.20;0.20;;;12.00;99.90;15.30;101167.00;;;;6372124;22;20134;-74
2023/04/11 07:42:49;;;;;;;5.20;1.00;;;13.00;99.90;16.20;101158.00;;;;6371711;22;20146;-73
2023/04/11 07:45:25;;;;;;;4.10;1.90;;;13.40;99.90;14.30;101175.00;;;;6317975;22;20656;-73
2023/04/11 07:48:11;;;;;;;2.40;0.60;;;13.30;99.90;13.50;101123.00;;;;6371674;22;20149;-75
2023/04/11 07:50:45;;;;;;;10.93;3.23;;;12.40;99.90;13.70;101146.00;;;;6317766;22;20182;-74
2023/04/11 07:53:22;;;;;;;6.27;2.07;;;12.00;99.90;15.50;101166.00;;;;6343522;22;20244;-74
2023/04/11 07:56:15;;;;;;;5.67;2.30;;;12.90;99.90;15.20;101199.00;;;;6343921;22;20159;-74
2023/04/11 07:58:57;;;;;;;3.90;1.87;;;13.50;99.90;16.70;101195.00;;;;6317989;22;20157;-74
2023/04/11 08:01:59;;;;;;;10.70;2.87;;;14.10;99.90;15.10;101207.00;;;;6318487;22;20180;-75
2023/04/11 08:04:45;;;;;;;2.00;1.00;;;13.50;99.90;14.40;101222.00;;;;6343207;22;20134;-75
2023/04/11 08:07:55;;;;;;;3.30;1.33;;;13.10;99.90;15.10;101213.00;;;;6317933;22;20152;-71
2023/04/11 08:11:01;;;;;;;0.17;0.17;;;13.10;99.90;16.30;101210.00;;;;6343660;22;20141;-76
2023/04/11 08:14:02;;;;;;;8.77;2.70;;;13.50;99.90;15.00;101232.00;;;;6324172;22;20252;-70
2023/04/11 08:16:45;;;;;;;9.40;2.50;;;13.50;99.90;15.10;101229.00;;;;6343451;22;20146;-72
2023/04/11 08:19:37;;;;;;;4.00;2.17;;;13.40;99.90;14.70;101231.00;;;;6344057;22;20147;-72
2023/04/11 08:22:11;;;;;;;3.07;1.10;;;13.00;99.90;14.60;101242.00;;;;6343625;22;20144;-72
2023/04/11 08:24:37;;;;;;;7.80;3.83;;;13.00;99.90;15.20;101251.00;;;;6343534;22;20140;-73
2023/04/11 08:27:03;;;;;;;2.37;2.27;;;13.30;99.90;17.10;101233.00;;;;6343831;22;20219;-72
2023/04/11 08:30:07;;;;;;;0.37;0.23;;;14.10;99.90;19.30;101235.00;;;;6343318;22;20151;-73
2023/04/11 08:32:34;;;;;;;1.60;0.67;;;15.60;99.90;19.60;101227.00;;;;6341934;22;20213;-72
2023/04/11 08:35:19;;;;;;;6.10;2.27;;;16.50;99.90;18.80;101248.00;;;;6317441;22;20606;-71
2023/04/11 08:37:45;;;;;;;8.70;5.17;;;16.10;99.90;16.70;101275.00;;;;6371275;22;20166;-72
2023/04/11 08:40:17;;;;;;;3.00;2.80;;;15.40;99.90;16.60;101289.00;;;;6371373;22;20173;-72
2023/04/11 08:42:45;;;;;;;6.93;2.53;;;14.50;99.90;15.10;101272.00;;;;6343619;22;20165;-73
2023/04/11 08:45:12;;;;;;;12.60;2.27;;;14.00;99.90;17.20;101297.00;;;;6343446;22;20158;-72
2023/04/11 08:48:12;;;;;;;0.77;0.77;;;14.40;99.90;18.20;101289.00;;;;6343150;22;20205;-71
2023/04/11 08:50:45;;;;;;;2.57;2.33;;;15.20;99.90;18.90;101263.00;;;;6320631;22;20552;-72
2023/04/11 08:53:49;;;;;;;3.30;2.53;;;15.90;99.90;16.90;101288.00;;;;6370790;22;20255;-71
2023/04/11 08:57:25;;;;;;;6.13;1.83;;;15.20;99.90;16.10;101310.00;;;;6188316;23;20161;-71
2023/04/11 09:03:07;;;;;;;5.20;3.00;;;14.50;99.90;15.90;101321.00;;;;6192442;23;20221;-72
2023/04/11 09:06:10;;;;;;;5.77;2.10;;;14.20;99.90;16.00;101334.00;;;;6163199;23;20177;-71
2023/04/11 09:09:28;;;;;;;4.93;2.23;;;14.00;99.90;18.20;101300.00;;;;6133729;23;20168;-73
2023/04/11 09:12:02;;;;;;;0.40;0.40;;;14.90;99.90;19.20;101236.00;;;;6133799;23;20241;-73
2023/04/11 09:17:46;;;;;;;0.37;0.37;;;15.90;99.90;18.60;101213.00;;;;6093684;23;20170;-73
2023/04/11 09:20:33;;;;;;;0.57;0.57;;;15.70;99.90;18.10;101264.00;;;;6311775;22;20235;-73
2023/04/11 09:23:01;;;;;;;7.67;1.70;;;15.70;99.90;16.80;101261.00;;;;6286686;22;20242;-73
2023/04/11 09:25:52;;;;;;;3.47;1.90;;;15.10;99.90;16.00;101277.00;;;;6339580;22;20218;-70
2023/04/11 09:28:53;;;;;;;6.03;2.17;;;14.30;99.90;16.70;101243.00;;;;6339051;22;20139;-71
2023/04/11 09:31:42;;;;;;;9.30;4.60;;;14.60;99.90;17.20;101311.00;;;;6133651;23;20206;-70
2023/04/11 09:34:26;;;;;;;2.90;0.83;;;14.70;99.90;17.40;101310.00;;;;6206058;22;20497;-67
2023/04/11 09:38:02;;;;;;;3.43;1.67;;;15.00;99.90;16.60;101322.00;;;;6312341;22;20137;-68
2023/04/11 09:40:55;;;;;;;6.43;1.80;;;14.90;99.90;17.00;101308.00;;;;6182939;23;20299;-68
2023/04/11 09:43:56;;;;;;;1.60;0.80;;;14.80;99.90;15.60;101349.00;;;;6157521;23;20260;-69
2023/04/11 09:46:30;;;;;;;4.27;1.50;;;14.30;99.90;15.40;101335.00;;;;6070326;23;20284;-68
2023/04/11 09:49:25;;;;;;;3.40;1.60;;;14.00;99.90;14.80;101365.00;;;;6151150;23;20169;-68
2023/04/11 09:51:52;;;;;;;8.03;2.00;;;13.50;99.90;15.20;101338.00;;;;6156412;23;20288;-68
2023/04/11 09:54:44;;;;;;;3.83;1.60;;;13.80;99.90;16.60;101319.00;;;;6157394;23;20238;-68
2023/04/11 09:57:25;;;;;;;5.57;1.17;;;14.20;99.90;15.80;101254.00;;;;6235091;22;20188;-68
2023/04/11 09:59:55;;;;;;;0.80;0.80;;;14.20;99.90;16.80;101288.00;;;;6310632;22;20253;-68
2023/04/11 10:02:40;;;;;;;1.97;0.73;;;14.30;99.90;16.70;101282.00;;;;6284935;22;20160;-67
2023/04/11 10:05:07;;;;;;;0.70;0.50;;;14.70;99.90;18.00;101244.00;;;;6284680;22;20229;-67
2023/04/11 10:08:24;;;;;;;0.93;0.70;;;15.10;99.90;16.20;101298.00;;;;6284353;22;20194;-67
2023/04/11 10:11:10;;;;;;;5.63;1.10;;;14.60;99.90;16.60;101296.00;;;;6328854;22;20187;-67
2023/04/11 10:13:41;;;;;;;3.20;0.80;;;14.30;99.90;17.50;101282.00;;;;6310410;22;20169;-68
2023/04/11 10:16:31;;;;;;;0.50;0.50;;;14.70;99.90;19.10;101264.00;;;;6310069;22;20191;-67
2023/04/11 10:19:21;;;;;;;1.47;1.43;;;15.60;99.90;18.30;101280.00;;;;6313181;22;20138;-68
2023/04/11 10:38:00;;;;;;;0.10;0.10;;;15.20;99.90;18.20;101287.00;;;;5076256;28;20250;-67
2023/04/11 10:41:13;;;;;;;1.87;0.90;;;15.40;99.90;17.80;101287.00;;;;5075550;28;20288;-66
2023/04/11 10:44:12;;;;;;;0.60;0.60;;;15.50;99.90;17.00;101295.00;;;;5059940;28;20192;-67
2023/04/11 10:47:15;;;;;;;0.97;0.97;;;14.80;99.90;17.40;101287.00;;;;5069076;28;20223;-66
2023/04/11 10:50:06;;;;;;;8.40;1.47;;;14.70;99.90;17.10;101287.00;;;;5076597;28;21126;-66
2023/04/11 10:52:55;;;;;;;0.50;0.43;;;14.70;99.90;16.50;101303.00;;;;5076558;28;20207;-67
2023/04/11 10:55:28;;;;;;;2.17;0.63;;;14.30;99.90;16.10;101297.00;;;;5076515;28;20197;-66
2023/04/11 10:58:20;;;;;;;5.97;5.10;;;14.10;99.90;16.10;101330.00;;;;5075970;28;20711;-67
2023/04/11 11:01:18;;;;;;;0.37;0.37;;;14.10;99.90;16.40;101333.00;;;;5102296;28;20670;-66
2023/04/11 11:04:40;;;;;;;1.93;0.97;;;13.90;99.90;15.80;101341.00;;;;5098998;28;20639;-66
2023/04/11 11:07:24;;;;;;;0.70;0.60;;;13.60;99.90;16.20;101336.00;;;;5087139;28;20244;-67
2023/04/11 11:10:45;;;;;;;0.57;0.57;;;13.70;99.90;15.10;101369.00;;;;5116958;28;20196;-66
2023/04/11 11:14:01;;;;;;;1.00;0.90;;;13.30;99.90;15.60;101376.00;;;;5107834;28;20612;-66
2023/04/11 11:17:06;;;;;;;0.27;0.27;;;13.20;99.90;14.40;101408.00;;;;5102172;28;20180;-66
2023/04/11 11:19:57;;;;;;;0.67;0.67;;;12.70;99.90;14.00;101429.00;;;;5106738;28;20661;-66
2023/04/11 11:23:06;;;;;;;0.13;0.13;;;12.20;99.90;15.60;101414.00;;;;5094972;28;20190;-66
2023/04/11 11:25:57;;;;;;;0.50;0.50;;;12.30;99.90;14.40;101438.00;;;;5105984;28;20183;-66
2023/04/11 11:29:06;;;;;;;1.60;1.33;;;12.40;99.90;14.80;101430.00;;;;5114256;28;20185;-66
2023/04/11 11:31:44;;;;;;;11.97;1.30;;;12.60;99.90;14.10;101417.00;;;;5094612;28;20242;-66
2023/04/11 11:34:41;;;;;;;1.33;0.77;;;12.30;99.90;12.00;101481.00;;;;5107834;28;20236;-65
2023/04/11 11:37:31;;;;;;;4.23;0.57;;;11.50;99.90;12.40;101469.00;;;;5100084;28;20199;-65
2023/04/11 11:39:57;;;;;;;0.10;0.10;;;11.10;99.90;14.30;101384.00;;;;5096607;28;20191;-65
2023/04/11 11:43:01;;;;;;;0.60;0.50;;;11.40;99.90;14.50;101385.00;;;;5107011;28;20273;-65
2023/04/11 11:46:06;;;;;;;0.30;0.30;;;11.90;99.90;14.50;101380.00;;;;5084129;28;20261;-65
2023/04/11 11:48:35;;;;;;;0.10;0.10;;;12.20;99.90;16.50;101372.00;;;;5090044;28;20197;-65
2023/04/11 11:51:59;;;;;;;1.47;0.70;;;13.00;99.90;16.90;101345.00;;;;5087120;28;20193;-65
2023/04/11 11:55:33;;;;;;;0.40;0.40;;;14.00;99.90;15.50;101348.00;;;;5093610;28;20381;-65
2023/04/11 11:58:21;;;;;;;0.63;0.40;;;13.70;99.90;15.60;101337.00;;;;5093213;28;20227;-65
2023/04/11 12:01:40;;;;;;;3.33;0.57;;;13.60;99.90;16.30;101304.00;;;;5094443;28;20191;-65
2023/04/11 12:04:47;;;;;;;0.10;0.10;;;13.90;99.90;17.20;101291.00;;;;5091720;28;20198;-65
2023/04/11 12:07:46;;;;;;;7.63;3.03;;;14.40;99.90;17.10;101288.00;;;;5088448;28;20226;-65
2023/04/11 12:10:30;;;;;;;1.57;0.43;;;14.40;99.90;17.70;101223.00;;;;5076731;28;20205;-66
2023/04/11 12:13:39;;;;;;;0.37;0.33;;;14.90;99.90;16.70;101291.00;;;;5085467;28;20560;-65
2023/04/11 12:16:33;;;;;;;1.67;0.93;;;14.50;99.90;17.60;101270.00;;;;5089050;28;20207;-66
2023/04/11 12:19:24;;;;;;;0.83;0.77;;;15.10;99.90;18.40;101201.00;;;;5081836;28;20286;-66
2023/04/11 12:22:24;;;;;;;0.40;0.40;;;15.50;99.90;18.30;101273.00;;;;5015943;28;20199;-66
2023/04/11 12:25:34;;;;;;;0.40;0.37;;;15.80;99.90;18.90;101265.00;;;;5012683;28;20187;-66
2023/04/11 12:28:29;;;;;;;3.87;2.07;;;15.90;99.90;17.30;101290.00;;;;5011540;28;20192;-66
2023/04/11 12:31:32;;;;;;;3.13;1.33;;;15.30;99.90;18.80;101277.00;;;;4991794;28;20606;-66
2023/04/11 12:34:30;;;;;;;0.97;0.47;;;15.80;99.90;18.10;101294.00;;;;5030614;28;20208;-66
2023/04/11 12:37:31;;;;;;;4.00;1.03;;;15.50;99.90;17.10;101306.00;;;;5024555;28;20670;-66
2023/04/11 12:40:23;;;;;;;1.17;1.07;;;15.40;99.90;16.60;101304.00;;;;5064455;28;20208;-66
2023/04/11 12:43:18;;;;;;;1.57;0.40;;;15.10;99.90;16.60;101319.00;;;;5012986;28;20283;-66
2023/04/11 12:46:26;;;;;;;0.10;0.10;;;15.00;99.90;17.70;101304.00;;;;5030469;28;20201;-66
2023/04/11 12:49:23;;;;;;;0.50;0.50;;;14.80;99.90;17.10;101309.00;;;;5004135;28;20204;-66
2023/04/11 12:52:12;;;;;;;1.27;0.43;;;15.00;99.90;17.40;101294.00;;;;5009307;28;20221;-66
2023/04/11 12:55:21;;;;;;;1.20;0.67;;;15.10;99.90;18.10;101291.00;;;;5031117;28;20178;-66
2023/04/11 12:58:27;;;;;;;0.63;0.47;;;15.60;99.90;16.70;101310.00;;;;5026986;28;20225;-66
2023/04/11 13:01:20;;;;;;;0.73;0.30;;;14.90;99.90;16.80;101295.00;;;;5090547;28;20205;-66
2023/04/11 13:04:29;;;;;;;0.73;0.33;;;14.70;99.90;17.20;101294.00;;;;5083829;28;20252;-66
2023/04/11 13:07:29;;;;;;;1.03;0.30;;;14.60;99.90;17.60;101288.00;;;;5084739;28;20203;-66
2023/04/11 13:10:19;;;;;;;1.53;0.60;;;14.70;99.90;17.10;101280.00;;;;5092325;28;20183;-65
2023/04/11 13:13:13;;;;;;;0.27;0.27;;;14.90;99.90;17.20;101280.00;;;;5093433;28;20213;-65
2023/04/11 13:16:09;;;;;;;0.10;0.10;;;14.70;99.90;17.10;101287.00;;;;5091877;28;20179;-65
2023/04/11 13:19:13;;;;;;;3.77;0.60;;;14.80;99.90;16.50;101294.00;;;;5092240;28;20194;-65
2023/04/11 13:22:17;;;;;;;1.20;0.80;;;14.70;99.90;17.50;101277.00;;;;5067625;28;20182;-65
2023/04/11 13:25:08;;;;;;;1.60;0.70;;;14.70;99.90;17.60;101269.00;;;;5090947;28;20557;-65
2023/04/11 13:28:10;;;;;;;0.40;0.40;;;15.00;99.90;18.30;101247.00;;;;5092431;28;20197;-65
2023/04/11 13:31:01;;;;;;;0.10;0.10;;;15.30;99.90;18.70;101204.00;;;;5093142;28;20195;-65
2023/04/11 13:34:10;;;;;;;1.60;0.67;;;15.70;99.90;18.00;101244.00;;;;5091022;28;20203;-66
2023/04/11 13:37:13;;;;;;;0.80;0.80;;;15.60;99.90;18.20;101230.00;;;;5091519;28;20200;-66
2023/04/11 13:40:17;;;;;;;2.73;1.30;;;15.40;99.90;17.40;101242.00;;;;5085629;28;20189;-66
2023/04/11 13:43:21;;;;;;;0.30;0.30;;;15.70;99.90;18.00;101219.00;;;;5068562;28;20222;-66
2023/04/11 13:46:32;;;;;;;3.53;0.77;;;15.50;99.90;18.40;101218.00;;;;5078862;28;20234;-66
2023/04/11 13:49:33;;;;;;;0.20;0.20;;;15.70;99.90;17.90;101161.00;;;;5083700;28;20179;-66
2023/04/11 13:52:34;;;;;;;0.20;0.20;;;15.50;99.90;17.60;101224.00;;;;5086889;28;20602;-66
2023/04/11 13:55:38;;;;;;;0.20;0.20;;;15.00;99.90;18.30;101212.00;;;;5091122;28;20193;-66
2023/04/11 13:58:29;;;;;;;1.03;1.03;;;15.00;99.90;17.80;101206.00;;;;5075681;28;20185;-66
2023/04/11 14:01:33;;;;;;;0.20;0.20;;;15.30;99.90;16.70;101237.00;;;;5088269;28;20189;-66
2023/04/11 14:04:36;;;;;;;2.43;1.03;;;14.80;99.90;18.00;101143.00;;;;5068701;28;20203;-66
2023/04/11 14:07:35;;;;;;;1.13;0.87;;;15.20;99.90;17.60;101187.00;;;;5084977;28;20235;-66
2023/04/11 14:10:44;;;;;;;0.43;0.20;;;15.20;99.90;17.40;101204.00;;;;5085096;28;20187;-65
2023/04/11 14:13:48;;;;;;;0.10;0.10;;;15.10;99.90;18.30;101202.00;;;;5068492;28;20215;-66
2023/04/11 14:16:51;;;;;;;0.20;0.20;;;15.10;99.90;18.40;101180.00;;;;5089876;28;20185;-66
2023/04/11 14:20:13;;;;;;;0.50;0.40;;;15.40;99.90;16.70;101202.00;;;;5072619;28;20196;-66
2023/04/11 14:23:19;;;;;;;0.47;0.47;;;15.30;99.90;16.60;101129.00;;;;5091088;28;20192;-66
2023/04/11 14:26:20;;;;;;;0.10;0.10;;;14.80;99.90;16.90;101197.00;;;;5086956;28;20200;-66
2023/04/11 14:29:06;;;;;;;0.63;0.50;;;14.60;99.90;16.80;101185.00;;;;5070543;28;20185;-66
2023/04/11 14:32:09;;;;;;;0.77;0.30;;;14.70;99.90;17.30;101143.00;;;;5091523;28;20301;-66
2023/04/11 14:35:13;;;;;;;0.10;0.10;;;15.10;99.90;17.30;101174.00;;;;5088145;28;20275;-66
2023/04/11 14:38:06;;;;;;;1.03;0.57;;;15.30;99.90;16.90;101183.00;;;;5078476;28;20185;-62
2023/04/11 14:41:09;;;;;;;0.10;0.10;;;14.90;99.90;17.90;101138.00;;;;5090802;28;20187;-71
2023/04/11 14:43:35;;;;;;;1.80;0.73;;;15.20;99.90;19.00;101155.00;;;;5072813;28;20185;-74
2023/04/11 14:46:52;;;;;;;0.20;0.20;;;15.60;99.90;19.00;101143.00;;;;5093305;28;20179;-72
2023/04/11 14:49:27;;;;;;;0.10;0.10;;;15.80;99.90;18.40;101164.00;;;;5060019;28;20190;-70
2023/04/11 14:52:36;;;;;;;2.27;0.57;;;15.80;99.90;16.50;101202.00;;;;5092543;28;20595;-69
2023/04/11 14:56:03;;;;;;;1.23;0.77;;;15.40;99.90;17.30;101185.00;;;;5080895;28;20560;-71
2023/04/11 14:59:33;;;;;;;0.10;0.10;;;15.00;99.90;18.10;101163.00;;;;5089480;28;20638;-69
2023/04/11 15:02:46;;;;;;;0.10;0.10;;;15.50;99.90;18.40;101162.00;;;;5089263;28;20204;-65
2023/04/11 15:05:22;;;;;;;0.30;0.30;;;15.40;99.90;17.10;101173.00;;;;5084911;28;20189;-69
2023/04/11 15:08:13;;;;;;;0.50;0.50;;;15.00;99.90;16.80;101205.00;;;;5066663;28;20188;-66
2023/04/11 15:10:44;;;;;;;0.63;0.30;;;14.70;99.90;17.00;101201.00;;;;5030939;28;20231;-66
2023/04/11 15:13:47;;;;;;;0.10;0.10;;;14.70;99.90;19.00;101163.00;;;;5083638;28;20572;-64
2023/04/11 15:16:24;;;;;;;0.10;0.10;;;15.40;99.90;18.30;101179.00;;;;5090182;28;20186;-64
2023/04/11 15:19:27;;;;;;;5.20;0.63;;;15.40;99.90;19.60;101136.00;;;;5092655;28;20184;-63
2023/04/11 15:22:36;;;;;;;0.10;0.10;;;15.80;99.90;17.10;101176.00;;;;5091369;28;20192;-66
2023/04/11 15:25:08;;;;;;;0.23;0.20;;;15.10;99.90;16.80;101179.00;;;;5086585;28;20236;-67
2023/04/11 15:27:34;;;;;;;0.10;0.10;;;14.80;99.90;17.50;101102.00;;;;5092648;28;20180;-65
2023/04/11 15:30:20;;;;;;;0.20;0.20;;;14.80;99.90;18.10;101096.00;;;;5094915;28;20195;-65
2023/04/11 15:32:59;;;;;;;0.10;0.10;;;15.10;99.90;17.80;101164.00;;;;5109451;28;20256;-66
2023/04/11 15:35:33;;;;;;;0.33;0.33;;;15.40;99.90;17.40;101039.00;;;;5094912;28;20542;-65
2023/04/11 15:38:09;;;;;;;0.50;0.50;;;15.20;99.90;17.60;101176.00;;;;5095111;28;20190;-67
2023/04/11 15:40:35;;;;;;;1.07;1.07;;;15.20;99.90;18.60;101133.00;;;;5078027;28;20179;-68
2023/04/11 15:43:46;;;;;;;0.10;0.10;;;15.50;99.90;18.20;101156.00;;;;5093222;28;20207;-68
2023/04/11 15:47:12;;;;;;;0.10;0.10;;;15.30;99.90;18.80;101151.00;;;;5071122;28;20210;-68
2023/04/11 15:50:08;;;;;;;0.90;0.50;;;15.70;99.90;17.90;101162.00;;;;5089742;28;20193;-68
2023/04/11 15:53:06;;;;;;;0.10;0.10;;;15.50;99.90;19.20;101135.00;;;;5087942;28;20207;-68
2023/04/11 15:56:05;;;;;;;0.10;0.10;;;15.80;99.90;19.10;101129.00;;;;5085887;28;20217;-68
2023/04/11 15:58:47;;;;;;;0.10;0.10;;;15.90;99.90;18.00;101152.00;;;;5074950;28;20192;-68
2023/04/11 16:01:24;;;;;;;0.10;0.10;;;15.30;99.90;19.20;101061.00;;;;5090814;28;20204;-68
2023/04/11 16:04:24;;;;;;;0.10;0.10;;;15.60;99.90;19.30;101121.00;;;;5091422;28;20549;-68
2023/04/11 16:07:13;;;;;;;0.50;0.47;;;15.90;99.90;16.30;101173.00;;;;5095612;28;20183;-68
2023/04/11 16:10:04;;;;;;;1.10;0.70;;;14.90;99.90;16.70;101174.00;;;;5094184;28;20184;-68
2023/04/11 16:12:45;;;;;;;1.43;0.30;;;14.50;99.90;16.60;101167.00;;;;5094104;28;20207;-68
2023/04/11 16:15:28;;;;;;;0.10;0.10;;;14.40;99.90;17.80;101159.00;;;;5093556;28;20702;-68
2023/04/11 16:18:27;;;;;;;0.33;0.33;;;14.70;99.90;17.70;101149.00;;;;5094035;28;20654;-68
2023/04/11 16:21:23;;;;;;;0.73;0.67;;;14.90;99.90;15.60;101162.00;;;;5052605;28;20203;-68
2023/04/11 16:23:57;;;;;;;0.27;0.20;;;14.40;99.90;17.00;101130.00;;;;5051814;28;20211;-68
2023/04/11 16:26:52;;;;;;;0.10;0.10;;;14.40;99.90;16.30;101144.00;;;;5109946;28;20203;-68
2023/04/11 16:29:44;;;;;;;0.10;0.10;;;14.20;99.90;16.60;101138.00;;;;5093696;28;20187;-68
2023/04/11 16:32:32;;;;;;;0.63;0.63;;;14.30;99.90;17.30;101124.00;;;;5094973;28;20672;-73
2023/04/11 16:35:20;;;;;;;0.83;0.40;;;14.50;99.90;16.30;101139.00;;;;5066563;28;20511;-70
2023/04/11 16:38:22;;;;;;;0.30;0.30;;;14.20;99.90;17.70;101042.00;;;;5085163;28;20657;-70
2023/04/11 16:41:00;;;;;;;2.23;0.30;;;14.50;99.90;16.80;101115.00;;;;5015736;28;20186;-72
2023/04/11 16:43:34;;;;;;;0.10;0.10;;;14.40;99.90;16.50;101148.00;;;;5032739;28;20262;-69
2023/04/11 16:46:00;;;;;;;0.40;0.40;;;14.20;99.90;17.50;101129.00;;;;5015985;28;20216;-70
2023/04/11 16:48:55;;;;;;;0.10;0.10;;;14.30;99.90;17.50;101132.00;;;;5032169;28;20208;-70
2023/04/11 16:51:29;;;;;;;0.10;0.10;;;14.50;99.90;17.60;101114.00;;;;5006975;28;20621;-67
2023/04/11 16:54:24;;;;;;;0.10;0.10;;;14.60;99.90;16.50;101064.00;;;;4999780;28;20702;-69
2023/04/11 16:56:50;;;;;;;0.20;0.20;;;14.30;99.90;16.20;101064.00;;;;4950273;28;20204;-65
2023/04/11 16:59:48;;;;;;;0.10;0.10;;;14.00;99.90;16.40;101146.00;;;;4957289;28;20206;-65
2023/04/11 17:02:23;;;;;;;1.90;1.80;;;13.80;99.90;16.50;101129.00;;;;5032132;28;20214;-65
2023/04/11 17:04:54;;;;;;;0.10;0.10;;;13.90;99.90;16.30;101142.00;;;;5015411;28;20184;-65
2023/04/11 17:07:46;;;;;;;0.10;0.10;;;13.80;99.90;16.20;101120.00;;;;5031916;28;20189;-65
2023/04/11 17:10:21;;;;;;;0.13;0.13;;;13.70;99.90;16.90;101121.00;;;;5012443;28;20208;-65
2023/04/11 17:13:13;;;;;;;0.53;0.40;;;13.80;99.90;15.50;101129.00;;;;5031717;28;20214;-65
2023/04/11 17:16:06;;;;;;;0.10;0.10;;;13.60;99.90;16.50;101122.00;;;;5084831;28;20206;-65
2023/04/11 17:18:54;;;;;;;0.10;0.10;;;13.70;99.90;16.60;101110.00;;;;5081041;28;20198;-65
2023/04/11 17:21:42;;;;;;;0.50;0.50;;;13.70;99.90;15.80;101045.00;;;;5089589;28;20642;-66
2023/04/11 17:24:10;;;;;;;0.10;0.10;;;13.80;99.90;16.70;101114.00;;;;5092844;28;20187;-65
2023/04/11 17:26:55;;;;;;;4.17;0.73;;;13.80;99.90;16.20;101024.00;;;;5092735;28;20191;-65
2023/04/11 17:29:49;;;;;;;0.30;0.30;;;13.70;99.90;15.90;101119.00;;;;5076178;28;20197;-65
2023/04/11 17:32:18;;;;;;;0.20;0.20;;;13.60;99.90;16.40;101100.00;;;;5093655;28;20226;-65
2023/04/11 17:35:00;;;;;;;0.20;0.20;;;13.70;99.90;16.40;101105.00;;;;5092565;28;20281;-65
2023/04/11 17:37:40;;;;;;;0.50;0.40;;;13.70;99.90;15.90;101104.00;;;;5092382;28;20193;-65
2023/04/11 17:40:24;;;;;;;0.10;0.10;;;13.50;99.90;16.10;101103.00;;;;5092825;28;20673;-65
2023/04/11 17:42:56;;;;;;;3.83;1.37;;;13.50;99.90;15.00;101088.00;;;;5091789;28;20185;-65
2023/04/11 17:45:40;;;;;;;0.30;0.30;;;13.00;99.90;15.70;101073.00;;;;5092492;28;20239;-65
2023/04/11 17:48:47;;;;;;;0.20;0.20;;;13.20;99.90;15.60;101041.00;;;;5091965;28;20193;-70
2023/04/11 17:51:23;;;;;;;0.73;0.47;;;13.10;99.90;15.00;101048.00;;;;5093243;28;20249;-73
2023/04/11 17:54:27;;;;;;;7.70;0.43;;;12.90;99.90;15.30;101028.00;;;;5075512;28;20212;-73
2023/04/11 17:56:55;;;;;;;0.20;0.20;;;12.90;99.90;15.50;101021.00;;;;5076075;28;20288;-72
2023/04/11 17:59:44;;;;;;;0.20;0.20;;;12.90;99.90;14.90;100994.00;;;;5091691;28;20185;-72
2023/04/11 18:02:41;;;;;;;0.17;0.17;;;12.80;99.90;14.80;100977.00;;;;5092117;28;20650;-72
2023/04/11 18:06:00;;;;;;;0.10;0.10;;;12.70;99.90;15.00;100960.00;;;;5050401;28;20201;-72
2023/04/11 18:09:33;;;;;;;0.20;0.20;;;12.60;99.90;14.90;100933.00;;;;4955728;28;20197;-72
2023/04/11 18:12:24;;;;;;;0.10;0.10;;;12.60;99.90;15.60;100926.00;;;;4914149;29;21703;-72
2023/04/11 18:15:01;;;;;;;0.17;0.17;;;12.80;99.90;14.90;100928.00;;;;4906761;29;20205;-72
2023/04/11 18:17:27;;;;;;;0.20;0.20;;;12.80;99.90;15.10;100917.00;;;;4950714;29;20240;-71
2023/04/11 18:20:21;;;;;;;0.33;0.33;;;12.70;99.90;14.60;100923.00;;;;5036934;28;20213;-71
2023/04/11 18:22:56;;;;;;;0.20;0.20;;;12.60;99.90;14.60;100894.00;;;;5091053;28;20185;-71
2023/04/11 18:25:36;;;;;;;0.53;0.53;;;12.50;99.90;14.50;100881.00;;;;5092599;28;20645;-73
2023/04/11 18:28:16;;;;;;;0.20;0.20;;;12.40;99.90;15.10;100882.00;;;;5091648;28;20234;-73
2023/04/11 18:31:11;;;;;;;1.17;0.63;;;12.60;99.90;14.20;100871.00;;;;5075416;28;20233;-73
2023/04/11 18:33:48;;;;;;;0.37;0.37;;;12.40;99.90;14.70;100861.00;;;;5082816;28;20185;-73
2023/04/11 18:36:24;;;;;;;0.20;0.20;;;12.40;99.90;15.20;100784.00;;;;5091214;28;20188;-73
2023/04/11 18:39:01;;;;;;;0.20;0.20;;;12.50;99.90;14.80;100793.00;;;;5092088;28;20186;-73
2023/04/11 18:41:38;;;;;;;0.10;0.10;;;12.60;99.90;15.00;100847.00;;;;5091693;28;20191;-73
2023/04/11 18:44:15;;;;;;;0.23;0.23;;;12.70;99.90;15.10;100799.00;;;;5090430;28;20183;-73
2023/04/11 18:46:48;;;;;;;0.20;0.20;;;12.60;99.90;14.70;100872.00;;;;5093583;28;20238;-73
2023/04/11 18:49:23;;;;;;;0.63;0.60;;;12.60;99.90;14.80;100857.00;;;;5091625;28;20197;-73
2023/04/11 18:51:57;;;;;;;0.63;0.53;;;12.50;99.90;14.70;100845.00;;;;5091766;28;20224;-73
2023/04/11 18:54:32;;;;;;;0.20;0.20;;;12.50;99.90;14.60;100848.00;;;;5081209;28;20281;-73
2023/04/11 18:57:06;;;;;;;0.20;0.20;;;12.50;99.90;14.80;100848.00;;;;5096015;28;20235;-73
2023/04/11 18:59:43;;;;;;;2.73;2.00;;;12.50;99.90;14.20;100830.00;;;;5085743;28;20233;-73
2023/04/11 19:02:20;;;;;;;0.30;0.30;;;12.30;99.90;14.50;100834.00;;;;5097204;28;20193;-73
2023/04/11 19:04:59;;;;;;;0.10;0.10;;;12.20;99.90;14.30;100836.00;;;;5090571;28;20540;-73
2023/04/11 19:07:36;;;;;;;0.20;0.20;;;12.40;99.90;14.90;100821.00;;;;5095776;28;20216;-73
2023/04/11 19:10:09;;;;;;;0.40;0.40;;;12.40;99.90;15.20;100807.00;;;;5076012;28;20180;-73
2023/04/11 19:12:43;;;;;;;1.67;1.13;;;12.60;99.90;15.60;100812.00;;;;5078715;28;20196;-73
2023/04/11 19:15:15;;;;;;;0.40;0.40;;;12.70;99.90;15.00;100737.00;;;;5081891;28;20173;-73
2023/04/11 19:17:50;;;;;;;0.20;0.20;;;12.80;99.90;15.30;100813.00;;;;5111938;28;20184;-73
2023/04/11 19:20:28;;;;;;;0.10;0.10;;;12.70;99.90;14.90;100811.00;;;;5095409;28;20317;-73
2023/04/11 19:23:17;;;;;;;6.50;0.60;;;12.60;99.90;14.70;100774.00;;;;5095770;28;20551;-79
2023/04/11 19:25:49;;;;;;;0.20;0.20;;;12.50;99.90;15.00;100736.00;;;;5094974;28;20206;-78
2023/04/11 19:28:20;;;;;;;0.10;0.10;;;12.50;99.90;14.70;100797.00;;;;5096766;28;20207;-79
2023/04/11 19:31:02;;;;;;;0.20;0.20;;;12.40;99.90;14.90;100778.00;;;;5095396;28;20186;-78
2023/04/11 19:33:43;;;;;;;0.20;0.20;;;12.40;99.90;14.90;100760.00;;;;5078557;28;20215;-79
2023/04/11 19:36:18;;;;;;;0.30;0.30;;;12.40;99.90;14.60;100762.00;;;;5085346;28;20649;-79
2023/04/11 19:38:52;;;;;;;0.20;0.20;;;12.40;99.90;14.80;100748.00;;;;5078366;28;20190;-79
2023/04/11 19:41:27;;;;;;;0.20;0.20;;;12.40;99.90;14.90;100736.00;;;;5094974;28;20268;-78
2023/04/11 19:44:01;;;;;;;0.20;0.20;;;12.40;99.90;14.40;100747.00;;;;5096171;28;20183;-80
2023/04/11 19:46:35;;;;;;;0.20;0.20;;;12.20;99.90;14.20;100734.00;;;;5094773;28;20189;-78
2023/04/11 19:49:11;;;;;;;0.20;0.20;;;12.10;99.90;14.70;100736.00;;;;5094556;28;20241;-79